createdAt,value
2017-01-10T00:00:03.674Z,99.99
2017-01-10T00:01:12.361Z,99.99
2017-01-10T00:02:21.066Z,99.99
2017-01-10T00:03:29.775Z,99.99
2017-01-10T00:04:38.456Z,99.99
2017-01-10T00:05:47.194Z,99.99
2017-01-10T00:06:55.885Z,99.99
2017-01-10T00:08:04.571Z,99.99
2017-01-10T00:09:13.263Z,99.99
2017-01-10T00:10:21.952Z,99.99
2017-01-10T00:11:30.689Z,99.99
2017-01-10T00:12:39.776Z,99.99
2017-01-10T00:13:48.483Z,99.99
2017-01-10T00:14:57.173Z,99.99
2017-01-10T00:16:05.863Z,99.99
2017-01-10T00:17:14.604Z,99.99
2017-01-10T00:18:23.287Z,99.99
2017-01-10T00:19:31.973Z,99.99
2017-01-10T00:20:40.666Z,99.99
2017-01-10T00:21:49.360Z,99.99
2017-01-10T00:22:58.104Z,99.99
2017-01-10T00:24:06.819Z,99.99
2017-01-10T00:25:15.508Z,99.99
2017-01-10T00:26:24.197Z,99.99
2017-01-10T00:27:32.891Z,99.99
2017-01-10T00:28:41.625Z,99.99
2017-01-10T00:29:50.317Z,99.99
2017-01-10T00:30:59.013Z,99.99
2017-01-10T00:32:07.703Z,99.99
2017-01-10T00:33:16.397Z,99.99
2017-01-10T00:34:25.144Z,99.99
2017-01-10T00:35:33.833Z,99.99
2017-01-10T00:36:42.547Z,99.99
2017-01-10T00:37:51.241Z,99.99
2017-01-10T00:39:00.326Z,99.99
2017-01-10T00:40:09.070Z,99.99
2017-01-10T00:41:17.763Z,99.99
2017-01-10T00:42:26.449Z,99.99
2017-01-10T00:43:35.142Z,99.99
2017-01-10T00:44:43.828Z,99.99
2017-01-10T00:45:52.567Z,99.99
2017-01-10T00:47:01.259Z,99.99
2017-01-10T00:48:09.948Z,99.99
2017-01-10T00:49:18.633Z,99.99
2017-01-10T00:50:27.321Z,99.99
2017-01-10T00:51:36.061Z,99.99
2017-01-10T00:52:44.752Z,99.99
2017-01-10T00:53:53.442Z,99.99
2017-01-10T00:55:02.138Z,99.99
2017-01-10T00:56:10.829Z,99.99
2017-01-10T00:57:19.522Z,99.99
2017-01-10T00:58:28.211Z,99.99
2017-01-10T00:59:36.905Z,99.99
2017-01-10T01:00:45.593Z,99.99
2017-01-10T01:01:54.285Z,99.99
2017-01-10T01:03:02.978Z,99.99
2017-01-10T01:04:11.676Z,99.99
2017-01-10T01:05:20.762Z,99.99
2017-01-10T01:06:29.456Z,99.99
2017-01-10T01:07:38.145Z,99.99
2017-01-10T01:08:46.866Z,99.99
2017-01-10T01:09:55.557Z,99.99
2017-01-10T01:11:04.251Z,99.99
2017-01-10T01:12:12.937Z,99.99
2017-01-10T01:13:21.630Z,99.99
2017-01-10T01:14:30.324Z,99.99
2017-01-10T01:15:39.025Z,99.99
2017-01-10T01:16:47.717Z,99.99
2017-01-10T01:17:56.406Z,99.99
2017-01-10T01:19:05.094Z,99.99
2017-01-10T01:20:13.784Z,99.99
2017-01-10T01:21:22.873Z,99.99
2017-01-10T01:22:31.562Z,99.99
2017-01-10T01:23:40.250Z,99.99
2017-01-10T01:24:48.970Z,99.99
2017-01-10T01:25:57.661Z,99.99
2017-01-10T01:27:06.351Z,99.99
2017-01-10T01:28:15.042Z,99.99
2017-01-10T01:29:23.734Z,99.99
2017-01-10T01:30:32.421Z,99.99
2017-01-10T01:31:41.105Z,99.99
2017-01-10T01:32:49.797Z,99.99
2017-01-10T01:33:58.482Z,99.99
2017-01-10T01:35:07.175Z,99.99
2017-01-10T01:36:15.865Z,99.99
2017-01-10T01:37:24.559Z,99.99
2017-01-10T01:38:33.645Z,99.99
2017-01-10T01:39:42.334Z,99.99
2017-01-10T01:40:51.028Z,99.99
2017-01-10T01:41:59.718Z,99.99
2017-01-10T01:43:08.410Z,99.99
2017-01-10T01:44:17.107Z,99.99
2017-01-10T01:45:25.802Z,99.99
2017-01-10T01:46:34.493Z,99.99
2017-01-10T01:47:43.188Z,99.99
2017-01-10T01:48:51.881Z,99.99
2017-01-10T01:50:00.569Z,99.99
2017-01-10T01:51:09.267Z,99.99
2017-01-10T01:52:17.956Z,99.99
2017-01-10T01:53:26.647Z,99.99
2017-01-10T01:54:35.347Z,99.99
2017-01-10T01:55:44.049Z,99.99
2017-01-10T01:56:52.743Z,99.99
2017-01-10T01:58:01.441Z,99.99
2017-01-10T01:59:10.134Z,99.99
2017-01-10T02:00:18.830Z,99.99
2017-01-10T02:01:27.523Z,99.99
2017-01-10T02:02:36.215Z,99.99
2017-01-10T02:03:44.907Z,99.99
2017-01-10T02:04:53.622Z,99.99
2017-01-10T02:06:02.312Z,99.99
2017-01-10T02:07:11.011Z,99.99
2017-01-10T02:08:19.705Z,99.99
2017-01-10T02:09:28.401Z,99.99
2017-01-10T02:10:37.092Z,99.99
2017-01-10T02:11:45.788Z,99.99
2017-01-10T02:12:54.482Z,99.99
2017-01-10T02:14:03.177Z,99.99
2017-01-10T02:15:11.866Z,99.99
2017-01-10T02:16:20.556Z,99.99
2017-01-10T02:17:29.248Z,99.99
2017-01-10T02:18:37.938Z,99.99
2017-01-10T02:19:46.630Z,99.99
2017-01-10T02:20:55.317Z,99.99
2017-01-10T02:22:04.004Z,99.99
2017-01-10T02:23:12.711Z,99.99
2017-01-10T02:24:21.404Z,99.99
2017-01-10T02:25:30.094Z,99.99
2017-01-10T02:26:38.783Z,99.99
2017-01-10T02:27:47.477Z,99.99
2017-01-10T02:28:56.164Z,99.99
2017-01-10T02:30:04.860Z,99.99
2017-01-10T02:31:13.569Z,99.99
2017-01-10T02:32:22.261Z,99.99
2017-01-10T02:33:30.962Z,99.99
2017-01-10T02:34:39.650Z,99.99
2017-01-10T02:35:48.343Z,99.99
2017-01-10T02:36:57.036Z,99.99
2017-01-10T02:38:05.725Z,99.99
2017-01-10T02:39:14.416Z,99.99
2017-01-10T02:40:23.108Z,99.99
2017-01-10T02:41:31.794Z,99.99
2017-01-10T02:42:40.485Z,99.99
2017-01-10T02:43:49.180Z,99.99
2017-01-10T02:44:57.876Z,99.99
2017-01-10T02:46:06.571Z,99.99
2017-01-10T02:47:15.264Z,99.99
2017-01-10T02:48:23.957Z,99.99
2017-01-10T02:49:32.642Z,99.99
2017-01-10T02:50:41.341Z,99.99
2017-01-10T02:51:50.429Z,99.99
2017-01-10T02:52:59.126Z,99.99
2017-01-10T02:54:07.817Z,99.99
2017-01-10T02:55:16.505Z,99.99
2017-01-10T02:56:25.224Z,99.99
2017-01-10T02:57:33.911Z,99.99
2017-01-10T02:58:42.603Z,99.99
2017-01-10T02:59:51.298Z,99.99
2017-01-10T03:00:59.989Z,99.99
2017-01-10T03:02:08.685Z,99.99
2017-01-10T03:03:17.400Z,99.99
2017-01-10T03:04:26.115Z,99.99
2017-01-10T03:05:34.803Z,99.99
2017-01-10T03:06:43.494Z,99.99
2017-01-10T03:07:52.208Z,99.99
2017-01-10T03:09:00.930Z,99.99
2017-01-10T03:10:09.619Z,99.99
2017-01-10T03:11:18.313Z,99.99
2017-01-10T03:12:27.028Z,99.99
2017-01-10T03:13:35.718Z,99.99
2017-01-10T03:14:44.403Z,99.99
2017-01-10T03:15:53.095Z,99.99
2017-01-10T03:17:01.790Z,99.99
2017-01-10T03:18:10.477Z,99.99
2017-01-10T03:19:19.165Z,99.99
2017-01-10T03:20:27.854Z,99.99
2017-01-10T03:21:36.549Z,99.99
2017-01-10T03:22:45.242Z,99.99
2017-01-10T03:23:53.935Z,99.99
2017-01-10T03:25:02.631Z,99.99
2017-01-10T03:26:11.320Z,99.99
2017-01-10T03:27:20.006Z,99.99
2017-01-10T03:28:28.697Z,99.99
2017-01-10T03:29:37.389Z,99.99
2017-01-10T03:30:46.080Z,99.99
2017-01-10T03:31:54.772Z,99.99
2017-01-10T03:33:03.464Z,99.99
2017-01-10T03:34:12.158Z,99.99
2017-01-10T03:35:20.847Z,99.99
2017-01-10T03:36:29.540Z,99.99
2017-01-10T03:37:38.234Z,99.99
2017-01-10T03:38:46.924Z,99.99
2017-01-10T03:39:55.614Z,99.99
2017-01-10T03:41:04.314Z,99.99
2017-01-10T03:42:13.006Z,99.99
2017-01-10T03:43:21.711Z,99.99
2017-01-10T03:44:30.402Z,99.99
2017-01-10T03:45:39.092Z,99.99
2017-01-10T03:46:47.810Z,99.99
2017-01-10T03:47:56.500Z,99.99
2017-01-10T03:49:05.191Z,99.99
2017-01-10T03:50:13.875Z,99.99
2017-01-10T03:51:22.574Z,99.99
2017-01-10T03:52:31.265Z,99.99
2017-01-10T03:53:39.952Z,99.99
2017-01-10T03:54:48.644Z,99.99
2017-01-10T03:55:57.332Z,99.99
2017-01-10T03:57:06.056Z,99.99
2017-01-10T03:58:14.747Z,99.99
2017-01-10T03:59:23.437Z,99.99
2017-01-10T04:00:32.131Z,99.99
2017-01-10T04:01:40.826Z,99.99
2017-01-10T04:02:49.522Z,99.99
2017-01-10T04:03:58.274Z,99.99
2017-01-10T04:05:07.366Z,99.99
2017-01-10T04:06:16.055Z,99.99
2017-01-10T04:07:24.746Z,99.99
2017-01-10T04:08:33.440Z,99.99
2017-01-10T04:09:42.140Z,99.99
2017-01-10T04:10:50.832Z,99.99
2017-01-10T04:11:59.531Z,99.99
2017-01-10T04:13:08.226Z,99.99
2017-01-10T04:14:16.927Z,99.99
2017-01-10T04:15:25.620Z,99.99
2017-01-10T04:16:34.311Z,99.99
2017-01-10T04:17:43.006Z,99.99
2017-01-10T04:18:51.700Z,99.99
2017-01-10T04:20:00.397Z,99.99
2017-01-10T04:21:09.092Z,99.99
2017-01-10T04:22:17.788Z,99.99
2017-01-10T04:23:26.479Z,99.99
2017-01-10T04:24:35.568Z,99.99
2017-01-10T04:25:44.260Z,99.99
2017-01-10T04:26:52.953Z,99.99
2017-01-10T04:28:01.644Z,99.99
2017-01-10T04:29:10.342Z,99.99
2017-01-10T04:30:19.034Z,99.99
2017-01-10T04:31:27.721Z,99.99
2017-01-10T04:32:36.408Z,99.99
2017-01-10T04:33:45.096Z,99.99
2017-01-10T04:34:53.792Z,99.99
2017-01-10T04:36:02.484Z,99.99
2017-01-10T04:37:11.177Z,99.99
2017-01-10T04:38:19.871Z,99.99
2017-01-10T04:39:28.583Z,99.99
2017-01-10T04:40:37.273Z,99.99
2017-01-10T04:41:45.961Z,99.99
2017-01-10T04:42:54.649Z,99.99
2017-01-10T04:44:03.358Z,99.99
2017-01-10T04:45:12.053Z,99.99
2017-01-10T04:46:20.755Z,99.99
2017-01-10T04:47:29.445Z,99.99
2017-01-10T04:48:38.135Z,99.99
2017-01-10T04:49:46.826Z,99.99
2017-01-10T04:50:55.515Z,99.99
2017-01-10T04:52:04.211Z,99.99
2017-01-10T04:53:12.907Z,99.99
2017-01-10T04:54:21.593Z,99.85
2017-01-10T04:55:30.306Z,99.99
2017-01-10T04:56:38.995Z,99.66
2017-01-10T04:57:47.734Z,99.99
2017-01-10T04:58:56.427Z,99.85
2017-01-10T05:00:05.114Z,99.85
2017-01-10T05:01:13.804Z,99.99
2017-01-10T05:02:22.493Z,99.99
2017-01-10T05:03:31.184Z,99.85
2017-01-10T05:04:39.875Z,99.99
2017-01-10T05:05:48.566Z,99.99
2017-01-10T05:06:57.260Z,99.99
2017-01-10T05:08:05.951Z,99.66
2017-01-10T05:09:14.637Z,99.85
2017-01-10T05:10:23.329Z,99.85
2017-01-10T05:11:32.023Z,99.57
2017-01-10T05:12:40.714Z,99.66
2017-01-10T05:13:49.404Z,99.85
2017-01-10T05:14:58.096Z,99.29
2017-01-10T05:16:06.790Z,99.19
2017-01-10T05:17:15.495Z,99.66
2017-01-10T05:18:24.203Z,99.48
2017-01-10T05:19:32.897Z,99.48
2017-01-10T05:20:41.588Z,99.38
2017-01-10T05:21:50.281Z,99.71
2017-01-10T05:22:58.971Z,98.96
2017-01-10T05:24:07.663Z,99.15
2017-01-10T05:25:16.358Z,98.72
2017-01-10T05:26:25.053Z,98.82
2017-01-10T05:27:33.747Z,98.86
2017-01-10T05:28:42.432Z,98.86
2017-01-10T05:29:51.120Z,98.91
2017-01-10T05:30:59.809Z,99.01
2017-01-10T05:32:08.506Z,98.91
2017-01-10T05:33:17.200Z,98.72
2017-01-10T05:34:25.896Z,98.44
2017-01-10T05:35:34.587Z,99.01
2017-01-10T05:36:43.274Z,98.15
2017-01-10T05:37:51.960Z,99.01
2017-01-10T05:39:00.656Z,98.44
2017-01-10T05:40:09.344Z,97.96
2017-01-10T05:41:18.036Z,98.06
2017-01-10T05:42:26.729Z,98.06
2017-01-10T05:43:35.821Z,98.34
2017-01-10T05:44:44.513Z,98.15
2017-01-10T05:45:53.231Z,97.77
2017-01-10T05:47:01.922Z,98.06
2017-01-10T05:48:10.610Z,98.15
2017-01-10T05:49:19.299Z,98.06
2017-01-10T05:50:27.988Z,98.44
2017-01-10T05:51:36.678Z,97.77
2017-01-10T05:52:45.370Z,98.34
2017-01-10T05:53:54.057Z,98.53
2017-01-10T05:55:02.748Z,98.34
2017-01-10T05:56:11.443Z,98.15
2017-01-10T05:57:20.133Z,97.68
2017-01-10T05:58:28.829Z,98.44
2017-01-10T05:59:37.517Z,98.44
2017-01-10T06:00:46.206Z,97.68
2017-01-10T06:01:54.899Z,98.06
2017-01-10T06:03:03.592Z,98.25
2017-01-10T06:04:12.294Z,98.06
2017-01-10T06:05:20.982Z,98.15
2017-01-10T06:06:29.675Z,98.06
2017-01-10T06:07:38.362Z,99.01
2017-01-10T06:08:47.052Z,98.72
2017-01-10T06:09:55.740Z,98.53
2017-01-10T06:11:04.430Z,98.91
2017-01-10T06:12:13.269Z,98.91
2017-01-10T06:13:21.959Z,99.01
2017-01-10T06:14:30.651Z,99.19
2017-01-10T06:15:39.341Z,98.91
2017-01-10T06:16:48.029Z,98.91
2017-01-10T06:17:56.774Z,98.91
2017-01-10T06:19:05.465Z,98.44
2017-01-10T06:20:14.163Z,99.01
2017-01-10T06:21:22.846Z,98.91
2017-01-10T06:22:31.534Z,99.29
2017-01-10T06:23:40.324Z,98.44
2017-01-10T06:24:49.040Z,98.91
2017-01-10T06:25:57.728Z,98.82
2017-01-10T06:27:06.421Z,98.06
2017-01-10T06:28:15.116Z,98.53
2017-01-10T06:29:23.855Z,99.01
2017-01-10T06:30:32.543Z,98.53
2017-01-10T06:31:41.247Z,98.06
2017-01-10T06:32:49.938Z,98.53
2017-01-10T06:33:58.637Z,98.44
2017-01-10T06:35:07.378Z,98.25
2017-01-10T06:36:16.065Z,98.25
2017-01-10T06:37:24.755Z,98.44
2017-01-10T06:38:33.449Z,98.25
2017-01-10T06:39:42.135Z,98.15
2017-01-10T06:40:50.903Z,98.44
2017-01-10T06:41:59.593Z,98.15
2017-01-10T06:43:08.282Z,97.96
2017-01-10T06:44:16.976Z,98.25
2017-01-10T06:45:25.665Z,97.96
2017-01-10T06:46:34.711Z,98.25
2017-01-10T06:47:43.411Z,98.15
2017-01-10T06:48:52.098Z,97.68
2017-01-10T06:50:00.790Z,97.68
2017-01-10T06:51:09.482Z,97.2
2017-01-10T06:52:18.222Z,97.58
2017-01-10T06:53:26.926Z,97.96
2017-01-10T06:54:35.625Z,97.68
2017-01-10T06:55:44.315Z,98.06
2017-01-10T06:56:53.002Z,98.25
2017-01-10T06:58:01.744Z,98.34
2017-01-10T06:59:10.433Z,97.87
2017-01-10T07:00:19.129Z,97.77
2017-01-10T07:01:27.817Z,97.87
2017-01-10T07:02:36.533Z,97.77
2017-01-10T07:03:45.321Z,97.58
2017-01-10T07:04:54.012Z,97.2
2017-01-10T07:06:02.731Z,97.77
2017-01-10T07:07:11.420Z,97.77
2017-01-10T07:08:20.114Z,97.39
2017-01-10T07:09:28.857Z,98.25
2017-01-10T07:10:37.551Z,97.68
2017-01-10T07:11:46.254Z,97.39
2017-01-10T07:12:54.945Z,97.49
2017-01-10T07:14:03.638Z,97.39
2017-01-10T07:15:12.382Z,97.39
2017-01-10T07:16:21.075Z,97.39
2017-01-10T07:17:29.766Z,97.39
2017-01-10T07:18:38.468Z,96.45
2017-01-10T07:19:47.184Z,97.2
2017-01-10T07:20:56.318Z,97.39
2017-01-10T07:22:05.003Z,96.64
2017-01-10T07:23:13.762Z,96.92
2017-01-10T07:24:22.451Z,97.02
2017-01-10T07:25:31.138Z,97.2
2017-01-10T07:26:39.914Z,97.2
2017-01-10T07:27:48.606Z,97.02
2017-01-10T07:28:57.296Z,97.58
2017-01-10T07:30:05.986Z,97.3
2017-01-10T07:31:15.087Z,96.54
2017-01-10T07:32:23.826Z,97.2
2017-01-10T07:33:32.518Z,96.83
2017-01-10T07:34:41.204Z,97.2
2017-01-10T07:35:49.897Z,97.68
2017-01-10T07:36:58.587Z,96.45
2017-01-10T07:38:07.328Z,96.35
2017-01-10T07:39:16.020Z,96.54
2017-01-10T07:40:25.111Z,96.16
2017-01-10T07:41:33.801Z,95.69
2017-01-10T07:42:42.491Z,96.26
2017-01-10T07:43:51.240Z,96.64
2017-01-10T07:44:59.924Z,96.35
2017-01-10T07:46:08.616Z,96.54
2017-01-10T07:47:17.303Z,95.59
2017-01-10T07:48:26.000Z,95.69
2017-01-10T07:49:34.736Z,95.78
2017-01-10T07:50:43.426Z,95.88
2017-01-10T07:51:52.118Z,96.54
2017-01-10T07:53:00.808Z,96.35
2017-01-10T07:54:09.494Z,96.07
2017-01-10T07:55:18.245Z,96.54
2017-01-10T07:56:26.938Z,96.45
2017-01-10T07:57:35.627Z,96.54
2017-01-10T07:58:44.317Z,96.64
2017-01-10T07:59:53.005Z,96.64
2017-01-10T08:01:01.846Z,96.83
2017-01-10T08:02:10.536Z,96.26
2017-01-10T08:03:19.222Z,96.54
2017-01-10T08:04:27.911Z,96.35
2017-01-10T08:05:36.602Z,96.26
2017-01-10T08:06:45.343Z,95.69
2017-01-10T08:07:54.034Z,95.5
2017-01-10T08:09:02.724Z,95.12
2017-01-10T08:10:11.413Z,94.89
2017-01-10T08:11:20.101Z,95.5
2017-01-10T08:12:28.844Z,94.65
2017-01-10T08:13:37.531Z,94.6
2017-01-10T08:14:46.224Z,95.17
2017-01-10T08:15:55.307Z,94.6
2017-01-10T08:17:03.998Z,94.42
2017-01-10T08:18:12.733Z,94.04
2017-01-10T08:19:21.453Z,94.7
2017-01-10T08:20:30.137Z,95.17
2017-01-10T08:21:38.825Z,95.17
2017-01-10T08:22:47.515Z,95.36
2017-01-10T08:23:56.251Z,95.26
2017-01-10T08:25:04.960Z,95.36
2017-01-10T08:26:13.651Z,95.36
2017-01-10T08:27:22.337Z,94.89
2017-01-10T08:28:31.026Z,94.6
2017-01-10T08:29:39.767Z,94.7
2017-01-10T08:30:48.455Z,94.56
2017-01-10T08:31:57.144Z,94.42
2017-01-10T08:33:05.837Z,95.07
2017-01-10T08:34:14.528Z,94.6
2017-01-10T08:35:23.276Z,94.46
2017-01-10T08:36:31.970Z,94.6
2017-01-10T08:37:40.682Z,94.23
2017-01-10T08:38:49.372Z,94.04
2017-01-10T08:39:58.058Z,94.04
2017-01-10T08:41:06.799Z,94.6
2017-01-10T08:42:15.491Z,94.13
2017-01-10T08:43:24.180Z,94.04
2017-01-10T08:44:32.875Z,94.04
2017-01-10T08:45:41.563Z,94.18
2017-01-10T08:46:50.604Z,93.75
2017-01-10T08:47:59.291Z,93.61
2017-01-10T08:49:07.989Z,93.89
2017-01-10T08:50:16.682Z,93.89
2017-01-10T08:51:25.400Z,93.7
2017-01-10T08:52:34.139Z,94.46
2017-01-10T08:53:42.838Z,94.37
2017-01-10T08:54:51.523Z,94.56
2017-01-10T08:56:00.215Z,94.37
2017-01-10T08:57:08.912Z,95.12
2017-01-10T08:58:17.657Z,94.74
2017-01-10T08:59:26.348Z,94.84
2017-01-10T09:00:35.039Z,94.56
2017-01-10T09:01:43.729Z,94.37
2017-01-10T09:02:52.439Z,94.74
2017-01-10T09:04:01.128Z,94.93
2017-01-10T09:05:09.829Z,95.31
2017-01-10T09:06:18.523Z,94.93
2017-01-10T09:07:27.219Z,94.84
2017-01-10T09:08:35.910Z,95.12
2017-01-10T09:09:44.600Z,95.12
2017-01-10T09:10:53.283Z,94.84
2017-01-10T09:12:01.974Z,94.93
2017-01-10T09:13:10.670Z,95.31
2017-01-10T09:14:19.357Z,94.93
2017-01-10T09:15:28.119Z,94.56
2017-01-10T09:16:36.809Z,94.56
2017-01-10T09:17:45.497Z,94.37
2017-01-10T09:18:54.190Z,94.56
2017-01-10T09:20:02.880Z,94.18
2017-01-10T09:21:11.570Z,94.37
2017-01-10T09:22:20.258Z,94.56
2017-01-10T09:23:28.945Z,94.74
2017-01-10T09:24:37.635Z,93.8
2017-01-10T09:25:46.320Z,93.89
2017-01-10T09:26:55.015Z,94.08
2017-01-10T09:28:03.713Z,94.65
2017-01-10T09:29:12.437Z,94.74
2017-01-10T09:30:21.129Z,94.46
2017-01-10T09:31:29.823Z,94.74
2017-01-10T09:32:38.511Z,93.89
2017-01-10T09:33:47.203Z,94.74
2017-01-10T09:34:55.891Z,94.18
2017-01-10T09:36:04.582Z,94.37
2017-01-10T09:37:13.273Z,94.56
2017-01-10T09:38:21.960Z,94.74
2017-01-10T09:39:30.644Z,94.56
2017-01-10T09:40:39.335Z,94.56
2017-01-10T09:41:48.023Z,94.56
2017-01-10T09:42:56.707Z,94.37
2017-01-10T09:44:05.397Z,94.56
2017-01-10T09:45:14.495Z,94.74
2017-01-10T09:46:23.186Z,94.37
2017-01-10T09:47:32.273Z,94.65
2017-01-10T09:48:40.970Z,94.37
2017-01-10T09:49:49.658Z,94.46
2017-01-10T09:50:58.376Z,94.74
2017-01-10T09:52:07.072Z,94.84
2017-01-10T09:53:15.762Z,94.56
2017-01-10T09:54:24.445Z,94.37
2017-01-10T09:55:33.150Z,93.8
2017-01-10T09:56:41.871Z,94.08
2017-01-10T09:57:50.561Z,93.51
2017-01-10T09:58:59.278Z,93.99
2017-01-10T10:00:07.969Z,93.99
2017-01-10T10:01:16.655Z,93.32
2017-01-10T10:02:25.361Z,93.8
2017-01-10T10:03:34.049Z,93.23
2017-01-10T10:04:42.740Z,93.61
2017-01-10T10:05:51.432Z,93.04
2017-01-10T10:07:00.119Z,92.85
2017-01-10T10:08:08.811Z,93.13
2017-01-10T10:09:17.501Z,92.66
2017-01-10T10:10:26.192Z,92.76
2017-01-10T10:11:34.883Z,92.76
2017-01-10T10:12:43.571Z,93.04
2017-01-10T10:13:52.262Z,93.32
2017-01-10T10:15:00.947Z,92.85
2017-01-10T10:16:09.638Z,92.76
2017-01-10T10:17:18.348Z,92.66
2017-01-10T10:18:27.037Z,93.23
2017-01-10T10:19:35.731Z,93.51
2017-01-10T10:20:44.418Z,93.89
2017-01-10T10:21:53.107Z,92.94
2017-01-10T10:23:01.799Z,93.13
2017-01-10T10:24:10.490Z,92.66
2017-01-10T10:25:19.179Z,92.66
2017-01-10T10:26:27.863Z,92.47
2017-01-10T10:27:36.558Z,92.52
2017-01-10T10:28:45.244Z,92.43
2017-01-10T10:29:53.936Z,92.52
2017-01-10T10:31:02.625Z,92.14
2017-01-10T10:32:11.314Z,92.71
2017-01-10T10:33:20.004Z,92.9
2017-01-10T10:34:28.690Z,92.52
2017-01-10T10:35:37.383Z,92.24
2017-01-10T10:36:46.074Z,92.24
2017-01-10T10:37:54.756Z,92.52
2017-01-10T10:39:03.445Z,92.8
2017-01-10T10:40:12.136Z,92.43
2017-01-10T10:41:20.821Z,92.9
2017-01-10T10:42:29.522Z,92.43
2017-01-10T10:43:38.212Z,92.8
2017-01-10T10:44:46.911Z,93.27
2017-01-10T10:45:55.601Z,93.23
2017-01-10T10:47:04.300Z,92.9
2017-01-10T10:48:13.011Z,93.08
2017-01-10T10:49:21.708Z,92.9
2017-01-10T10:50:30.402Z,93.65
2017-01-10T10:51:39.091Z,93.37
2017-01-10T10:52:47.783Z,93.56
2017-01-10T10:53:56.473Z,92.61
2017-01-10T10:55:05.165Z,92.8
2017-01-10T10:56:13.850Z,93.18
2017-01-10T10:57:22.537Z,93.18
2017-01-10T10:58:31.227Z,92.99
2017-01-10T10:59:39.921Z,92.61
2017-01-10T11:00:48.611Z,92.61
2017-01-10T11:01:57.303Z,92.24
2017-01-10T11:03:06.007Z,92.24
2017-01-10T11:04:14.693Z,91.86
2017-01-10T11:05:23.381Z,92.33
2017-01-10T11:06:32.068Z,91.48
2017-01-10T11:07:40.755Z,91.48
2017-01-10T11:08:49.445Z,91.57
2017-01-10T11:09:58.146Z,91.76
2017-01-10T11:11:06.840Z,92.05
2017-01-10T11:12:15.557Z,92.33
2017-01-10T11:13:24.251Z,91.38
2017-01-10T11:14:32.937Z,91.67
2017-01-10T11:15:41.621Z,91.38
2017-01-10T11:16:50.307Z,91.57
2017-01-10T11:17:58.997Z,91.38
2017-01-10T11:19:07.688Z,91.57
2017-01-10T11:20:16.382Z,91.76
2017-01-10T11:21:25.063Z,91.95
2017-01-10T11:22:33.753Z,91.95
2017-01-10T11:23:42.444Z,92.52
2017-01-10T11:24:51.135Z,91.57
2017-01-10T11:25:59.822Z,91.48
2017-01-10T11:27:08.517Z,91.76
2017-01-10T11:28:17.206Z,91.76
2017-01-10T11:29:25.897Z,91.57
2017-01-10T11:30:34.587Z,91.86
2017-01-10T11:31:43.277Z,91.86
2017-01-10T11:32:51.965Z,91.76
2017-01-10T11:34:00.656Z,91.67
2017-01-10T11:35:09.351Z,91.95
2017-01-10T11:36:18.037Z,91.38
2017-01-10T11:37:26.725Z,91.29
2017-01-10T11:38:35.414Z,91.29
2017-01-10T11:39:44.131Z,91.1
2017-01-10T11:40:52.819Z,91.29
2017-01-10T11:42:01.531Z,91.57
2017-01-10T11:43:10.219Z,91.29
2017-01-10T11:44:19.307Z,91.86
2017-01-10T11:45:27.994Z,92.33
2017-01-10T11:46:36.689Z,92.52
2017-01-10T11:47:45.379Z,92.52
2017-01-10T11:48:54.070Z,92.24
2017-01-10T11:50:02.757Z,92.61
2017-01-10T11:51:11.448Z,92.33
2017-01-10T11:52:20.144Z,92.24
2017-01-10T11:53:28.833Z,91.95
2017-01-10T11:54:37.522Z,92.52
2017-01-10T11:55:46.216Z,92.24
2017-01-10T11:56:54.905Z,92.33
2017-01-10T11:58:03.603Z,92.33
2017-01-10T11:59:12.297Z,91.86
2017-01-10T12:00:20.981Z,92.43
2017-01-10T12:01:29.676Z,92.52
2017-01-10T12:02:38.367Z,92.99
2017-01-10T12:03:47.113Z,92.71
2017-01-10T12:04:55.806Z,92.71
2017-01-10T12:06:04.529Z,93.27
2017-01-10T12:07:13.230Z,93.37
2017-01-10T12:08:21.919Z,93.08
2017-01-10T12:09:30.605Z,93.27
2017-01-10T12:10:39.326Z,92.71
2017-01-10T12:11:48.016Z,93.13
2017-01-10T12:12:56.701Z,93.08
2017-01-10T12:14:05.397Z,93.65
2017-01-10T12:15:14.087Z,93.8
2017-01-10T12:16:22.778Z,94.08
2017-01-10T12:17:31.470Z,94.79
2017-01-10T12:18:40.259Z,94.7
2017-01-10T12:19:48.963Z,95.17
2017-01-10T12:20:57.661Z,95.5
2017-01-10T12:22:06.350Z,95.17
2017-01-10T12:23:15.043Z,94.42
2017-01-10T12:24:23.735Z,94.7
2017-01-10T12:25:32.426Z,94.79
2017-01-10T12:26:41.124Z,94.89
2017-01-10T12:27:49.817Z,94.56
2017-01-10T12:28:58.502Z,94.65
2017-01-10T12:30:07.200Z,94.46
2017-01-10T12:31:15.887Z,94.84
2017-01-10T12:32:24.574Z,94.7
2017-01-10T12:33:33.268Z,93.94
2017-01-10T12:34:41.959Z,93.94
2017-01-10T12:35:50.653Z,93.84
2017-01-10T12:36:59.344Z,93.8
2017-01-10T12:38:08.040Z,94.04
2017-01-10T12:39:16.739Z,94.74
2017-01-10T12:40:25.438Z,94.89
2017-01-10T12:41:34.133Z,94.42
2017-01-10T12:42:42.829Z,94.89
2017-01-10T12:43:51.519Z,94.79
2017-01-10T12:45:00.210Z,94.42
2017-01-10T12:46:08.903Z,94.84
2017-01-10T12:47:17.592Z,95.45
2017-01-10T12:48:26.298Z,94.93
2017-01-10T12:49:34.984Z,95.12
2017-01-10T12:50:43.674Z,94.84
2017-01-10T12:51:52.364Z,95.31
2017-01-10T12:53:01.051Z,95.4
2017-01-10T12:54:09.752Z,95.4
2017-01-10T12:55:18.442Z,95.78
2017-01-10T12:56:27.128Z,95.5
2017-01-10T12:57:35.815Z,95.88
2017-01-10T12:58:44.507Z,96.16
2017-01-10T12:59:53.197Z,95.59
2017-01-10T13:01:01.894Z,95.59
2017-01-10T13:02:10.596Z,95.4
2017-01-10T13:03:19.279Z,95.21
2017-01-10T13:04:27.970Z,95.21
2017-01-10T13:05:36.663Z,95.12
2017-01-10T13:06:45.353Z,94.74
2017-01-10T13:07:54.048Z,94.37
2017-01-10T13:09:02.744Z,94.37
2017-01-10T13:10:11.440Z,94.65
2017-01-10T13:11:20.128Z,94.56
2017-01-10T13:12:28.819Z,94.56
2017-01-10T13:13:37.511Z,94.84
2017-01-10T13:14:46.201Z,94.37
2017-01-10T13:15:54.897Z,94.37
2017-01-10T13:17:03.589Z,94.46
2017-01-10T13:18:12.299Z,95.12
2017-01-10T13:19:20.990Z,95.4
2017-01-10T13:20:29.678Z,95.4
2017-01-10T13:21:38.371Z,95.12
2017-01-10T13:22:47.464Z,95.21
2017-01-10T13:23:56.151Z,95.78
2017-01-10T13:25:04.846Z,95.78
2017-01-10T13:26:13.555Z,95.78
2017-01-10T13:27:22.243Z,95.5
2017-01-10T13:28:30.936Z,95.03
2017-01-10T13:29:39.634Z,95.5
2017-01-10T13:30:48.332Z,95.4
2017-01-10T13:31:57.022Z,95.59
2017-01-10T13:33:05.717Z,95.21
2017-01-10T13:34:14.416Z,96.16
2017-01-10T13:35:23.101Z,96.16
2017-01-10T13:36:31.788Z,96.45
2017-01-10T13:37:40.482Z,96.92
2017-01-10T13:38:49.172Z,96.73
2017-01-10T13:39:57.859Z,96.54
2017-01-10T13:41:06.553Z,96.26
2017-01-10T13:42:15.240Z,96.45
2017-01-10T13:43:23.931Z,96.35
2017-01-10T13:44:32.620Z,96.35
2017-01-10T13:45:41.309Z,96.26
2017-01-10T13:46:49.997Z,96.83
2017-01-10T13:47:58.691Z,96.92
2017-01-10T13:49:07.381Z,96.83
2017-01-10T13:50:16.073Z,96.92
2017-01-10T13:51:24.758Z,96.45
2017-01-10T13:52:33.452Z,96.83
2017-01-10T13:53:42.166Z,97.2
2017-01-10T13:54:50.856Z,96.64
2017-01-10T13:55:59.547Z,96.64
2017-01-10T13:57:08.238Z,97.02
2017-01-10T13:58:16.927Z,97.11
2017-01-10T13:59:25.617Z,96.92
2017-01-10T14:00:34.304Z,97.39
2017-01-10T14:01:43.368Z,97.02
2017-01-10T14:02:52.060Z,96.83
2017-01-10T14:04:00.752Z,97.11
2017-01-10T14:05:09.444Z,96.92
2017-01-10T14:06:18.132Z,96.83
2017-01-10T14:07:26.823Z,97.2
2017-01-10T14:08:35.519Z,96.26
2017-01-10T14:09:44.217Z,96.35
2017-01-10T14:10:52.905Z,96.35
2017-01-10T14:12:01.599Z,96.64
2017-01-10T14:13:10.290Z,97.02
2017-01-10T14:14:18.977Z,97.11
2017-01-10T14:15:28.068Z,97.2
2017-01-10T14:16:36.758Z,97.49
2017-01-10T14:17:45.445Z,97.3
2017-01-10T14:18:54.136Z,97.58
2017-01-10T14:20:02.830Z,97.68
2017-01-10T14:21:11.916Z,97.39
2017-01-10T14:22:20.605Z,97.2
2017-01-10T14:23:29.286Z,96.92
2017-01-10T14:24:37.973Z,96.92
2017-01-10T14:25:46.669Z,97.68
2017-01-10T14:26:55.758Z,97.49
2017-01-10T14:28:04.448Z,97.58
2017-01-10T14:29:13.141Z,97.49
2017-01-10T14:30:21.833Z,97.68
2017-01-10T14:31:30.534Z,97.58
2017-01-10T14:32:39.221Z,97.58
2017-01-10T14:33:47.908Z,97.39
2017-01-10T14:34:56.598Z,97.49
2017-01-10T14:36:05.294Z,97.02
2017-01-10T14:37:13.983Z,97.11
2017-01-10T14:38:22.677Z,97.11
2017-01-10T14:39:31.366Z,96.83
2017-01-10T14:40:40.057Z,97.3
2017-01-10T14:41:48.767Z,97.11
2017-01-10T14:42:57.464Z,97.11
2017-01-10T14:44:06.154Z,96.83
2017-01-10T14:45:14.842Z,96.64
2017-01-10T14:46:23.538Z,97.2